CYRA

Rae Lakes Airport

Gamètì, Northwest Territories, Canada
METAR CYRA 130100Z 30008KT 6SM -SHSN BKN050 M12/M16 A2912 RMK SC6 -7.7/-12.5/TR/27.0 SNW CVR/MUCH LOOSE LAST STFD OBS/NEXT 131500 UTC SLP882
Observed Flight Rules
Dec-13 @ 01:00 UTC (11 hours ago) Visual Flight Rules
Wind Visibility Clouds Conditions
300° at 8 knots 6 miles
  • Broken at 5,000' AGL
  • Light Snow
Temperatures Readings
Current -12°C / 10°F
Dewpoint -16°C / 3°F
Humidity 72%
Altimeter 29.12" Hg
Pressure 988.2 hPa
Elevation 213
METAR CYRA 130100Z 30008KT 6SM -SHSN BKN050 M12/M16 A2912 RMK SC6 -7.7/-12.5/TR/27.0 SNW CVR/MUCH LOOSE LAST STFD OBS/NEXT 131500 UTC SLP882
Observed Flight Rules
Dec-13 @ 01:00 UTC
(11 hours ago)
VFR
Wind Visibility
300° at 8 knots 6 miles
Clouds
  • Broken at 5,000' AGL
Conditions
  • Light Snow
Temperature Dewpoint
-12°C / 10°F -16°C / 3°F
Humidity Altimeter Pressure
72% 29.12" Hg 988.2 hPa